sensor_id;sensor_type;location;lat;lon;timestamp;pressure;altitude;pressure_sealevel;temperature;humidity
61086;BME280;46967;48.876;2.136;2023-02-19T00:00:28;102401.09;;;10.05;94.31
61086;BME280;46967;48.876;2.136;2023-02-19T00:02:53;102387.28;;;9.93;94.95
61086;BME280;46967;48.876;2.136;2023-02-19T00:05:21;102392.47;;;9.96;94.90
61086;BME280;46967;48.876;2.136;2023-02-19T00:07:46;102405.44;;;10.00;95.28
61086;BME280;46967;48.876;2.136;2023-02-19T00:10:11;102407.19;;;9.88;95.67
61086;BME280;46967;48.876;2.136;2023-02-19T00:12:37;102408.88;;;9.95;95.36
61086;BME280;46967;48.876;2.136;2023-02-19T00:15:02;102404.59;;;9.91;95.60
61086;BME280;46967;48.876;2.136;2023-02-19T00:17:30;102400.25;;;9.93;95.67
61086;BME280;46967;48.876;2.136;2023-02-19T00:19:55;102387.28;;;9.89;96.07
61086;BME280;46967;48.876;2.136;2023-02-19T00:22:20;102394.22;;;9.88;96.13
61086;BME280;46967;48.876;2.136;2023-02-19T00:24:47;102398.53;;;9.78;97.13
61086;BME280;46967;48.876;2.136;2023-02-19T00:27:12;102401.13;;;9.89;96.48
61086;BME280;46967;48.876;2.136;2023-02-19T00:29:37;102397.66;;;9.87;96.63
61086;BME280;46967;48.876;2.136;2023-02-19T00:32:03;102404.59;;;9.91;96.58
61086;BME280;46967;48.876;2.136;2023-02-19T00:34:28;102406.31;;;9.86;96.82
61086;BME280;46967;48.876;2.136;2023-02-19T00:36:54;102402.84;;;9.89;96.70
61086;BME280;46967;48.876;2.136;2023-02-19T00:39:19;102395.06;;;10.00;96.36
61086;BME280;46967;48.876;2.136;2023-02-19T00:41:45;102390.72;;;9.95;96.49
61086;BME280;46967;48.876;2.136;2023-02-19T00:44:11;102395.91;;;10.03;96.48
61086;BME280;46967;48.876;2.136;2023-02-19T00:46:40;102383.84;;;9.90;97.19
61086;BME280;46967;48.876;2.136;2023-02-19T00:49:06;102385.53;;;9.98;97.34
61086;BME280;46967;48.876;2.136;2023-02-19T00:51:35;102385.53;;;9.94;97.62
61086;BME280;46967;48.876;2.136;2023-02-19T00:54:01;102388.16;;;9.91;97.89
61086;BME280;46967;48.876;2.136;2023-02-19T00:56:27;102385.56;;;9.88;97.68
61086;BME280;46967;48.876;2.136;2023-02-19T00:58:52;102370.03;;;9.77;98.28
61086;BME280;46967;48.876;2.136;2023-02-19T01:01:18;102379.50;;;9.96;97.87
61086;BME280;46967;48.876;2.136;2023-02-19T01:03:44;102387.28;;;9.93;98.25
61086;BME280;46967;48.876;2.136;2023-02-19T01:06:12;102384.69;;;9.89;98.43
61086;BME280;46967;48.876;2.136;2023-02-19T01:08:38;102389.88;;;9.98;98.11
61086;BME280;46967;48.876;2.136;2023-02-19T01:11:05;102380.34;;;9.95;98.50
61086;BME280;46967;48.876;2.136;2023-02-19T01:13:31;102379.50;;;10.01;98.54
61086;BME280;46967;48.876;2.136;2023-02-19T01:16:07;102388.16;;;9.89;99.07
61086;BME280;46967;48.876;2.136;2023-02-19T01:18:33;102378.66;;;9.94;98.97
61086;BME280;46967;48.876;2.136;2023-02-19T01:20:59;102376.91;;;9.93;99.04
61086;BME280;46967;48.876;2.136;2023-02-19T01:23:28;102374.31;;;9.95;99.21
61086;BME280;46967;48.876;2.136;2023-02-19T01:25:53;102380.38;;;9.85;99.61
61086;BME280;46967;48.876;2.136;2023-02-19T01:28:19;102382.09;;;9.95;99.01
61086;BME280;46967;48.876;2.136;2023-02-19T01:30:44;102373.47;;;9.87;99.70
61086;BME280;46967;48.876;2.136;2023-02-19T01:33:09;102378.66;;;9.91;99.63
61086;BME280;46967;48.876;2.136;2023-02-19T01:35:37;102383.81;;;9.97;99.75
61086;BME280;46967;48.876;2.136;2023-02-19T01:38:03;102379.50;;;9.98;99.69
61086;BME280;46967;48.876;2.136;2023-02-19T01:40:28;102383.78;;;10.04;99.50
61086;BME280;46967;48.876;2.136;2023-02-19T01:42:54;102389.88;;;10.06;99.66
61086;BME280;46967;48.876;2.136;2023-02-19T01:48:13;102391.56;;;10.02;99.88
61086;BME280;46967;48.876;2.136;2023-02-19T01:50:43;102382.94;;;9.98;100.00
61086;BME280;46967;48.876;2.136;2023-02-19T01:53:11;102396.81;;;9.94;100.00
61086;BME280;46967;48.876;2.136;2023-02-19T01:55:39;102390.72;;;10.03;100.00
61086;BME280;46967;48.876;2.136;2023-02-19T01:58:05;102394.16;;;10.07;99.96
61086;BME280;46967;48.876;2.136;2023-02-19T02:00:31;102386.34;;;10.16;99.77
61086;BME280;46967;48.876;2.136;2023-02-19T02:02:58;102384.59;;;10.24;99.57
61086;BME280;46967;48.876;2.136;2023-02-19T02:05:39;102382.91;;;10.12;100.00
61086;BME280;46967;48.876;2.136;2023-02-19T02:08:06;102384.66;;;10.10;100.00
61086;BME280;46967;48.876;2.136;2023-02-19T02:10:51;102394.16;;;10.04;100.00
61086;BME280;46967;48.876;2.136;2023-02-19T02:13:17;102393.31;;;10.03;100.00
61086;BME280;46967;48.876;2.136;2023-02-19T02:24:28;102396.75;;;10.10;100.00
61086;BME280;46967;48.876;2.136;2023-02-19T02:30:16;102382.91;;;10.12;99.93
61086;BME280;46967;48.876;2.136;2023-02-19T02:32:59;102381.19;;;10.04;98.48
61086;BME280;46967;48.876;2.136;2023-02-19T02:35:33;102388.97;;;10.08;98.19
61086;BME280;46967;48.876;2.136;2023-02-19T02:38:02;102390.72;;;9.97;98.41
61086;BME280;46967;48.876;2.136;2023-02-19T02:40:29;102391.56;;;10.04;98.30
61086;BME280;46967;48.876;2.136;2023-02-19T02:42:57;102376.88;;;10.15;97.34
61086;BME280;46967;48.876;2.136;2023-02-19T02:45:26;102376.88;;;10.12;97.36
61086;BME280;46967;48.876;2.136;2023-02-19T02:48:10;102379.47;;;10.12;97.62
61086;BME280;46967;48.876;2.136;2023-02-19T02:50:44;102375.13;;;10.11;97.66
61086;BME280;46967;48.876;2.136;2023-02-19T02:53:16;102384.66;;;10.13;97.36
61086;BME280;46967;48.876;2.136;2023-02-19T02:56:02;102390.69;;;10.11;97.72
61086;BME280;46967;48.876;2.136;2023-02-19T02:58:28;102396.75;;;10.02;98.64
61086;BME280;46967;48.876;2.136;2023-02-19T03:00:59;102404.53;;;10.05;99.13
61086;BME280;46967;48.876;2.136;2023-02-19T03:03:46;102396.75;;;10.10;98.84
61086;BME280;46967;48.876;2.136;2023-02-19T03:06:16;102393.28;;;10.17;98.70
61086;BME280;46967;48.876;2.136;2023-02-19T03:08:48;102397.63;;;10.15;98.75
61086;BME280;46967;48.876;2.136;2023-02-19T03:11:17;102402.84;;;10.04;98.87
61086;BME280;46967;48.876;2.136;2023-02-19T03:16:47;102409.72;;;10.05;97.44
61086;BME280;46967;48.876;2.136;2023-02-19T03:19:52;102401.09;;;10.06;97.20
61086;BME280;46967;48.876;2.136;2023-02-19T03:22:28;102390.69;;;10.19;96.15
61086;BME280;46967;48.876;2.136;2023-02-19T03:25:01;102386.38;;;10.11;95.74
61086;BME280;46967;48.876;2.136;2023-02-19T03:27:48;102387.25;;;10.10;94.10
61086;BME280;46967;48.876;2.136;2023-02-19T03:30:21;102385.50;;;10.19;92.59
61086;BME280;46967;48.876;2.136;2023-02-19T03:32:54;102383.78;;;10.11;91.95
61086;BME280;46967;48.876;2.136;2023-02-19T03:35:24;102396.75;;;10.13;91.25
61086;BME280;46967;48.876;2.136;2023-02-19T03:38:01;102394.16;;;10.14;90.67
61086;BME280;46967;48.876;2.136;2023-02-19T03:40:30;102391.50;;;10.30;89.83
61086;BME280;46967;48.876;2.136;2023-02-19T03:43:20;102389.81;;;10.16;89.63
61086;BME280;46967;48.876;2.136;2023-02-19T03:46:02;102388.94;;;10.16;89.50
61086;BME280;46967;48.876;2.136;2023-02-19T03:48:35;102383.75;;;10.22;89.31
61086;BME280;46967;48.876;2.136;2023-02-19T03:54:22;102381.16;;;10.19;89.23
61086;BME280;46967;48.876;2.136;2023-02-19T03:57:06;102382.00;;;10.20;89.45
61086;BME280;46967;48.876;2.136;2023-02-19T03:59:40;102394.16;;;10.11;89.40
61086;BME280;46967;48.876;2.136;2023-02-19T04:02:18;102389.84;;;10.09;89.26
61086;BME280;46967;48.876;2.136;2023-02-19T04:04:58;102402.81;;;10.09;89.51
61086;BME280;46967;48.876;2.136;2023-02-19T04:07:27;102400.19;;;10.18;88.77
61086;BME280;46967;48.876;2.136;2023-02-19T04:09:56;102408.84;;;10.15;89.08
61086;BME280;46967;48.876;2.136;2023-02-19T04:12:22;102415.78;;;10.13;89.21
61086;BME280;46967;48.876;2.136;2023-02-19T04:14:52;102411.44;;;10.17;89.03
61086;BME280;46967;48.876;2.136;2023-02-19T04:17:23;102411.44;;;10.20;89.16
61086;BME280;46967;48.876;2.136;2023-02-19T04:19:51;102401.91;;;10.28;88.74
61086;BME280;46967;48.876;2.136;2023-02-19T04:22:18;102409.72;;;10.13;89.07
61086;BME280;46967;48.876;2.136;2023-02-19T04:24:50;102423.56;;;10.13;88.66
61086;BME280;46967;48.876;2.136;2023-02-19T04:27:16;102428.72;;;10.16;88.80
61086;BME280;46967;48.876;2.136;2023-02-19T04:29:42;102425.28;;;10.18;87.66
61086;BME280;46967;48.876;2.136;2023-02-19T04:32:09;102425.28;;;10.16;87.52
61086;BME280;46967;48.876;2.136;2023-02-19T04:34:35;102422.66;;;10.22;87.44
61086;BME280;46967;48.876;2.136;2023-02-19T04:37:00;102418.34;;;10.20;87.57
61086;BME280;46967;48.876;2.136;2023-02-19T04:39:26;102424.41;;;10.22;87.12
61086;BME280;46967;48.876;2.136;2023-02-19T04:41:51;102433.03;;;10.22;87.22
61086;BME280;46967;48.876;2.136;2023-02-19T04:44:16;102433.03;;;10.27;87.04
61086;BME280;46967;48.876;2.136;2023-02-19T04:46:41;102433.88;;;10.30;86.41
61086;BME280;46967;48.876;2.136;2023-02-19T04:49:07;102433.91;;;10.26;86.83
61086;BME280;46967;48.876;2.136;2023-02-19T04:51:32;102446.88;;;10.27;87.02
61086;BME280;46967;48.876;2.136;2023-02-19T04:53:57;102456.41;;;10.25;87.26
61086;BME280;46967;48.876;2.136;2023-02-19T04:56:23;102451.19;;;10.31;86.70
61086;BME280;46967;48.876;2.136;2023-02-19T04:58:48;102456.38;;;10.31;86.88
61086;BME280;46967;48.876;2.136;2023-02-19T05:01:14;102458.13;;;10.23;87.52
61086;BME280;46967;48.876;2.136;2023-02-19T05:03:39;102462.44;;;10.26;87.47
61086;BME280;46967;48.876;2.136;2023-02-19T05:06:07;102465.03;;;10.30;87.54
61086;BME280;46967;48.876;2.136;2023-02-19T05:08:34;102465.91;;;10.29;87.57
61086;BME280;46967;48.876;2.136;2023-02-19T05:11:01;102470.22;;;10.40;87.24
61086;BME280;46967;48.876;2.136;2023-02-19T05:13:27;102467.63;;;10.29;87.47
61086;BME280;46967;48.876;2.136;2023-02-19T05:16:13;102467.66;;;10.37;87.11
61086;BME280;46967;48.876;2.136;2023-02-19T05:18:41;102470.22;;;10.30;87.47
61086;BME280;46967;48.876;2.136;2023-02-19T05:21:07;102468.50;;;10.31;86.85
61086;BME280;46967;48.876;2.136;2023-02-19T05:23:32;102465.03;;;10.24;86.79
61086;BME280;46967;48.876;2.136;2023-02-19T05:25:58;102464.19;;;10.22;86.76
61086;BME280;46967;48.876;2.136;2023-02-19T05:28:23;102465.03;;;10.29;85.72
61086;BME280;46967;48.876;2.136;2023-02-19T05:30:53;102474.56;;;10.19;86.06
61086;BME280;46967;48.876;2.136;2023-02-19T05:33:20;102474.56;;;10.07;85.69
61086;BME280;46967;48.876;2.136;2023-02-19T05:35:49;102486.69;;;10.06;85.33
61086;BME280;46967;48.876;2.136;2023-02-19T05:38:15;102488.44;;;10.06;85.18
61086;BME280;46967;48.876;2.136;2023-02-19T05:40:41;102488.44;;;10.03;84.68
61086;BME280;46967;48.876;2.136;2023-02-19T05:43:07;102492.75;;;10.08;84.44
61086;BME280;46967;48.876;2.136;2023-02-19T05:45:33;102484.94;;;10.05;83.03
61086;BME280;46967;48.876;2.136;2023-02-19T05:47:59;102490.16;;;10.02;82.90
61086;BME280;46967;48.876;2.136;2023-02-19T05:50:24;102494.47;;;10.05;82.45
61086;BME280;46967;48.876;2.136;2023-02-19T05:52:50;102502.25;;;10.12;82.11
61086;BME280;46967;48.876;2.136;2023-02-19T05:55:15;102507.44;;;10.23;81.46
61086;BME280;46967;48.876;2.136;2023-02-19T05:57:46;102508.28;;;10.16;81.50
61086;BME280;46967;48.876;2.136;2023-02-19T06:00:17;102504.84;;;10.14;81.02
61086;BME280;46967;48.876;2.136;2023-02-19T06:02:42;102501.38;;;10.18;80.15
61086;BME280;46967;48.876;2.136;2023-02-19T06:05:08;102510.03;;;10.19;79.78
61086;BME280;46967;48.876;2.136;2023-02-19T06:07:34;102504.84;;;10.20;79.85
61086;BME280;46967;48.876;2.136;2023-02-19T06:10:01;102505.69;;;10.24;79.61
61086;BME280;46967;48.876;2.136;2023-02-19T06:12:26;102504.84;;;10.19;79.96
61086;BME280;46967;48.876;2.136;2023-02-19T06:14:51;102500.50;;;10.13;79.72
61086;BME280;46967;48.876;2.136;2023-02-19T06:17:17;102501.41;;;10.13;79.48
61086;BME280;46967;48.876;2.136;2023-02-19T06:19:42;102506.59;;;10.04;79.40
61086;BME280;46967;48.876;2.136;2023-02-19T06:22:08;102507.44;;;9.97;80.14
61086;BME280;46967;48.876;2.136;2023-02-19T06:24:33;102503.09;;;10.11;79.72
61086;BME280;46967;48.876;2.136;2023-02-19T06:27:00;102516.06;;;9.97;80.67
61086;BME280;46967;48.876;2.136;2023-02-19T06:29:25;102513.50;;;10.01;80.13
61086;BME280;46967;48.876;2.136;2023-02-19T06:31:50;102515.22;;;10.05;80.58
61086;BME280;46967;48.876;2.136;2023-02-19T06:34:16;102519.56;;;10.01;80.46
61086;BME280;46967;48.876;2.136;2023-02-19T06:36:41;102516.09;;;10.01;80.49
61086;BME280;46967;48.876;2.136;2023-02-19T06:39:06;102514.38;;;10.06;80.49
61086;BME280;46967;48.876;2.136;2023-02-19T06:41:32;102512.63;;;10.05;80.88
61086;BME280;46967;48.876;2.136;2023-02-19T06:43:57;102526.47;;;10.13;80.89
61086;BME280;46967;48.876;2.136;2023-02-19T06:46:23;102529.06;;;10.10;81.27
61086;BME280;46967;48.876;2.136;2023-02-19T06:48:48;102527.34;;;10.12;81.21
61086;BME280;46967;48.876;2.136;2023-02-19T06:51:16;102527.31;;;10.18;81.02
61086;BME280;46967;48.876;2.136;2023-02-19T06:53:48;102524.75;;;10.15;80.89
61086;BME280;46967;48.876;2.136;2023-02-19T06:56:34;102532.53;;;10.13;81.10
61086;BME280;46967;48.876;2.136;2023-02-19T06:59:01;102540.31;;;10.13;81.04
61086;BME280;46967;48.876;2.136;2023-02-19T07:01:31;102547.22;;;10.11;81.14
61086;BME280;46967;48.876;2.136;2023-02-19T07:03:57;102552.41;;;10.05;81.42
61086;BME280;46967;48.876;2.136;2023-02-19T07:06:24;102553.28;;;10.12;81.38
61086;BME280;46967;48.876;2.136;2023-02-19T07:08:50;102553.25;;;10.23;80.36
61086;BME280;46967;48.876;2.136;2023-02-19T07:11:16;102552.41;;;10.10;80.63
61086;BME280;46967;48.876;2.136;2023-02-19T07:13:43;102560.19;;;10.07;80.83
61086;BME280;46967;48.876;2.136;2023-02-19T07:16:09;102561.91;;;10.02;80.28
61086;BME280;46967;48.876;2.136;2023-02-19T07:18:35;102571.44;;;10.04;80.29
61086;BME280;46967;48.876;2.136;2023-02-19T07:21:04;102562.75;;;9.97;80.70
61086;BME280;46967;48.876;2.136;2023-02-19T07:23:30;102560.19;;;10.01;80.74
61086;BME280;46967;48.876;2.136;2023-02-19T07:25:56;102567.09;;;10.03;80.83
61086;BME280;46967;48.876;2.136;2023-02-19T07:28:21;102568.84;;;10.03;80.68
61086;BME280;46967;48.876;2.136;2023-02-19T07:30:46;102575.75;;;9.97;80.73
61086;BME280;46967;48.876;2.136;2023-02-19T07:33:12;102578.34;;;10.11;80.30
61086;BME280;46967;48.876;2.136;2023-02-19T07:35:37;102580.09;;;10.17;79.93
61086;BME280;46967;48.876;2.136;2023-02-19T07:38:03;102592.19;;;10.23;79.40
61086;BME280;46967;48.876;2.136;2023-02-19T07:40:28;102595.66;;;10.31;79.07
61086;BME280;46967;48.876;2.136;2023-02-19T07:42:53;102589.59;;;10.30;78.39
61086;BME280;46967;48.876;2.136;2023-02-19T07:45:19;102587.88;;;10.26;78.40
61086;BME280;46967;48.876;2.136;2023-02-19T07:47:44;102587.88;;;10.14;78.07
61086;BME280;46967;48.876;2.136;2023-02-19T07:50:09;102599.13;;;10.22;78.31
61086;BME280;46967;48.876;2.136;2023-02-19T07:52:35;102602.56;;;10.20;78.12
61086;BME280;46967;48.876;2.136;2023-02-19T07:55:01;102594.78;;;10.30;77.61
61086;BME280;46967;48.876;2.136;2023-02-19T07:57:27;102596.56;;;10.36;77.07
61086;BME280;46967;48.876;2.136;2023-02-19T07:59:53;102601.75;;;10.35;77.07
61086;BME280;46967;48.876;2.136;2023-02-19T08:02:19;102612.94;;;10.30;77.50
61086;BME280;46967;48.876;2.136;2023-02-19T08:05:05;102611.25;;;10.39;77.45
61086;BME280;46967;48.876;2.136;2023-02-19T08:07:34;102615.56;;;10.40;77.45
61086;BME280;46967;48.876;2.136;2023-02-19T08:10:01;102624.22;;;10.36;77.64
61086;BME280;46967;48.876;2.136;2023-02-19T08:12:45;102618.19;;;10.40;77.35
61086;BME280;46967;48.876;2.136;2023-02-19T08:15:29;102625.09;;;10.35;76.53
61086;BME280;46967;48.876;2.136;2023-02-19T08:17:54;102624.22;;;10.37;76.38
61086;BME280;46967;48.876;2.136;2023-02-19T08:20:19;102620.78;;;10.43;76.12
61086;BME280;46967;48.876;2.136;2023-02-19T08:22:45;102625.09;;;10.38;76.24
61086;BME280;46967;48.876;2.136;2023-02-19T08:25:10;102628.56;;;10.37;75.60
61086;BME280;46967;48.876;2.136;2023-02-19T08:27:35;102639.78;;;10.39;75.12
61086;BME280;46967;48.876;2.136;2023-02-19T08:30:01;102635.50;;;10.33;75.00
61086;BME280;46967;48.876;2.136;2023-02-19T08:32:27;102625.97;;;10.41;73.83
61086;BME280;46967;48.876;2.136;2023-02-19T08:34:52;102629.44;;;10.34;74.11
61086;BME280;46967;48.876;2.136;2023-02-19T08:37:17;102634.59;;;10.39;73.57
61086;BME280;46967;48.876;2.136;2023-02-19T08:39:42;102624.25;;;10.34;73.28
61086;BME280;46967;48.876;2.136;2023-02-19T08:42:08;102622.50;;;10.33;74.01
61086;BME280;46967;48.876;2.136;2023-02-19T08:44:33;102638.94;;;10.38;74.44
61086;BME280;46967;48.876;2.136;2023-02-19T08:46:58;102631.16;;;10.35;75.20
61086;BME280;46967;48.876;2.136;2023-02-19T08:49:27;102635.50;;;10.47;75.42
61086;BME280;46967;48.876;2.136;2023-02-19T08:51:52;102630.31;;;10.41;75.95
61086;BME280;46967;48.876;2.136;2023-02-19T08:54:17;102625.09;;;10.44;75.13
61086;BME280;46967;48.876;2.136;2023-02-19T08:56:43;102632.00;;;10.54;75.25
61086;BME280;46967;48.876;2.136;2023-02-19T08:59:08;102621.63;;;10.60;74.22
61086;BME280;46967;48.876;2.136;2023-02-19T09:01:34;102620.78;;;10.64;72.66
61086;BME280;46967;48.876;2.136;2023-02-19T09:03:59;102627.69;;;10.62;72.88
61086;BME280;46967;48.876;2.136;2023-02-19T09:06:24;102631.16;;;10.69;72.80
61086;BME280;46967;48.876;2.136;2023-02-19T09:08:50;102637.19;;;10.60;73.47
61086;BME280;46967;48.876;2.136;2023-02-19T09:11:15;102640.66;;;10.59;73.27
61086;BME280;46967;48.876;2.136;2023-02-19T09:13:42;102638.06;;;10.70;73.83
61086;BME280;46967;48.876;2.136;2023-02-19T09:16:07;102653.63;;;10.73;74.59
61086;BME280;46967;48.876;2.136;2023-02-19T09:18:32;102654.53;;;10.71;75.46
61086;BME280;46967;48.876;2.136;2023-02-19T09:21:02;102663.16;;;10.71;75.99
61086;BME280;46967;48.876;2.136;2023-02-19T09:23:29;102660.56;;;10.69;75.83
61086;BME280;46967;48.876;2.136;2023-02-19T09:25:59;102657.06;;;10.83;76.00
61086;BME280;46967;48.876;2.136;2023-02-19T09:28:25;102653.63;;;10.85;75.69
61086;BME280;46967;48.876;2.136;2023-02-19T09:30:51;102656.22;;;10.87;74.25
61086;BME280;46967;48.876;2.136;2023-02-19T09:33:16;102655.31;;;10.91;74.48
61086;BME280;46967;48.876;2.136;2023-02-19T09:35:42;102661.41;;;10.92;73.00
61086;BME280;46967;48.876;2.136;2023-02-19T09:38:07;102659.66;;;10.89;72.37
61086;BME280;46967;48.876;2.136;2023-02-19T09:40:35;102662.28;;;10.84;71.24
61086;BME280;46967;48.876;2.136;2023-02-19T09:43:05;102662.28;;;10.81;70.13
61086;BME280;46967;48.876;2.136;2023-02-19T09:45:31;102665.72;;;10.91;70.75
61086;BME280;46967;48.876;2.136;2023-02-19T09:47:56;102667.47;;;10.77;69.93
61086;BME280;46967;48.876;2.136;2023-02-19T09:50:31;102667.47;;;10.91;70.07
61086;BME280;46967;48.876;2.136;2023-02-19T09:53:01;102657.06;;;10.92;69.52
61086;BME280;46967;48.876;2.136;2023-02-19T09:55:42;102676.16;;;10.88;69.41
61086;BME280;46967;48.876;2.136;2023-02-19T10:00:48;102675.25;;;10.91;69.79
61086;BME280;46967;48.876;2.136;2023-02-19T10:03:22;102673.56;;;10.74;68.33
61086;BME280;46967;48.876;2.136;2023-02-19T10:05:51;102666.63;;;10.84;68.53
61086;BME280;46967;48.876;2.136;2023-02-19T10:08:19;102658.81;;;11.01;68.02
61086;BME280;46967;48.876;2.136;2023-02-19T10:10:45;102650.09;;;11.10;68.02
61086;BME280;46967;48.876;2.136;2023-02-19T10:18:11;102676.03;;;11.37;68.61
61086;BME280;46967;48.876;2.136;2023-02-19T10:20:39;102668.22;;;11.36;68.56
61086;BME280;46967;48.876;2.136;2023-02-19T10:23:07;102673.38;;;11.48;68.69
61086;BME280;46967;48.876;2.136;2023-02-19T10:25:35;102671.59;;;11.66;69.22
61086;BME280;46967;48.876;2.136;2023-02-19T10:28:03;102671.53;;;11.72;68.68
61086;BME280;46967;48.876;2.136;2023-02-19T10:30:33;102665.44;;;11.79;68.96
61086;BME280;46967;48.876;2.136;2023-02-19T10:35:28;102686.28;;;11.70;67.64
61086;BME280;46967;48.876;2.136;2023-02-19T10:37:54;102688.81;;;11.85;67.26
61086;BME280;46967;48.876;2.136;2023-02-19T10:40:22;102698.41;;;11.72;66.92
61086;BME280;46967;48.876;2.136;2023-02-19T10:43:01;102700.13;;;11.75;67.13
61086;BME280;46967;48.876;2.136;2023-02-19T10:45:37;102698.41;;;11.75;67.43
61086;BME280;46967;48.876;2.136;2023-02-19T10:48:05;102699.22;;;11.85;66.94
61086;BME280;46967;48.876;2.136;2023-02-19T10:50:35;102708.78;;;11.83;66.65
61086;BME280;46967;48.876;2.136;2023-02-19T10:53:20;102714.84;;;11.85;66.82
61086;BME280;46967;48.876;2.136;2023-02-19T10:55:47;102728.69;;;11.86;66.88
61086;BME280;46967;48.876;2.136;2023-02-19T10:58:30;102724.41;;;11.83;66.89
61086;BME280;46967;48.876;2.136;2023-02-19T11:01:15;102729.59;;;11.83;66.71
61086;BME280;46967;48.876;2.136;2023-02-19T11:03:41;102737.34;;;11.88;66.92
61086;BME280;46967;48.876;2.136;2023-02-19T11:06:08;102729.53;;;11.95;66.89
61086;BME280;46967;48.876;2.136;2023-02-19T11:08:55;102719.22;;;11.75;66.88
61086;BME280;46967;48.876;2.136;2023-02-19T11:11:37;102723.50;;;11.83;66.66
61086;BME280;46967;48.876;2.136;2023-02-19T11:14:13;102731.34;;;11.76;67.75
61086;BME280;46967;48.876;2.136;2023-02-19T11:16:45;102721.75;;;11.86;68.03
61086;BME280;46967;48.876;2.136;2023-02-19T11:19:27;102725.22;;;11.87;67.79
61086;BME280;46967;48.876;2.136;2023-02-19T11:21:54;102723.47;;;11.98;67.90
61086;BME280;46967;48.876;2.136;2023-02-19T11:24:34;102726.88;;;12.06;68.02
61086;BME280;46967;48.876;2.136;2023-02-19T11:27:03;102729.50;;;12.05;68.02
61086;BME280;46967;48.876;2.136;2023-02-19T11:29:30;102723.38;;;12.20;68.19
61086;BME280;46967;48.876;2.136;2023-02-19T11:32:27;102736.44;;;12.06;68.05
61086;BME280;46967;48.876;2.136;2023-02-19T11:35:17;102735.63;;;11.87;68.04
61086;BME280;46967;48.876;2.136;2023-02-19T11:37:53;102736.47;;;11.90;68.56
61086;BME280;46967;48.876;2.136;2023-02-19T11:40:28;102749.50;;;11.95;68.33
61086;BME280;46967;48.876;2.136;2023-02-19T11:50:55;102747.75;;;11.99;69.34
61086;BME280;46967;48.876;2.136;2023-02-19T11:53:28;102740.88;;;11.82;69.10
61086;BME280;46967;48.876;2.136;2023-02-19T11:56:13;102741.69;;;11.89;69.08
61086;BME280;46967;48.876;2.136;2023-02-19T12:06:30;102735.63;;;11.88;67.09
61086;BME280;46967;48.876;2.136;2023-02-19T12:09:31;102731.31;;;11.81;67.38
61086;BME280;46967;48.876;2.136;2023-02-19T12:12:36;102736.53;;;11.78;67.18
61086;BME280;46967;48.876;2.136;2023-02-19T12:15:08;102739.22;;;11.61;67.40
61086;BME280;46967;48.876;2.136;2023-02-19T12:18:07;102745.22;;;11.82;66.83
61086;BME280;46967;48.876;2.136;2023-02-19T12:26:33;102747.03;;;11.61;66.89
61086;BME280;46967;48.876;2.136;2023-02-19T12:37:54;102733.88;;;11.90;65.98
61086;BME280;46967;48.876;2.136;2023-02-19T12:43:21;102722.44;;;12.27;63.72
61086;BME280;46967;48.876;2.136;2023-02-19T12:46:00;102718.09;;;12.23;63.36
61086;BME280;46967;48.876;2.136;2023-02-19T12:48:51;102719.63;;;12.58;61.54
61086;BME280;46967;48.876;2.136;2023-02-19T12:51:24;102713.34;;;12.82;61.56
61086;BME280;46967;48.876;2.136;2023-02-19T12:53:55;102721.84;;;13.01;60.22
61086;BME280;46967;48.876;2.136;2023-02-19T12:56:29;102717.53;;;12.98;60.12
61086;BME280;46967;48.876;2.136;2023-02-19T12:59:02;102716.91;;;12.70;60.51
61086;BME280;46967;48.876;2.136;2023-02-19T13:01:38;102714.38;;;12.61;61.52
61086;BME280;46967;48.876;2.136;2023-02-19T13:07:06;102700.13;;;12.99;61.35
61086;BME280;46967;48.876;2.136;2023-02-19T13:09:40;102695.56;;;13.21;59.91
61086;BME280;46967;48.876;2.136;2023-02-19T13:12:16;102680.06;;;13.09;59.84
61086;BME280;46967;48.876;2.136;2023-02-19T13:14:59;102674.22;;;12.86;59.45
61086;BME280;46967;48.876;2.136;2023-02-19T13:17:40;102666.00;;;13.22;59.01
61086;BME280;46967;48.876;2.136;2023-02-19T13:22:45;102663.59;;;13.05;58.74
61086;BME280;46967;48.876;2.136;2023-02-19T13:36:46;102658.81;;;14.09;57.06
61086;BME280;46967;48.876;2.136;2023-02-19T13:39:14;102663.69;;;14.32;55.47
61086;BME280;46967;48.876;2.136;2023-02-19T13:41:42;102653.66;;;14.61;55.67
61086;BME280;46967;48.876;2.136;2023-02-19T13:44:19;102653.09;;;14.42;55.03
61086;BME280;46967;48.876;2.136;2023-02-19T13:46:46;102651.94;;;14.58;55.34
61086;BME280;46967;48.876;2.136;2023-02-19T13:49:38;102630.16;;;14.05;55.81
61086;BME280;46967;48.876;2.136;2023-02-19T14:05:58;102617.66;;;14.25;57.18
61086;BME280;46967;48.876;2.136;2023-02-19T14:11:11;102613.59;;;14.07;58.02
61086;BME280;46967;48.876;2.136;2023-02-19T14:16:49;102617.00;;;14.12;57.44
61086;BME280;46967;48.876;2.136;2023-02-19T14:33:24;102641.56;;;14.01;56.21
61086;BME280;46967;48.876;2.136;2023-02-19T14:36:08;102652.81;;;14.03;56.43
61086;BME280;46967;48.876;2.136;2023-02-19T14:38:44;102639.72;;;14.06;56.23
61086;BME280;46967;48.876;2.136;2023-02-19T14:41:11;102654.13;;;14.31;56.01
61086;BME280;46967;48.876;2.136;2023-02-19T14:43:37;102652.22;;;14.40;55.69
61086;BME280;46967;48.876;2.136;2023-02-19T14:46:11;102651.06;;;14.59;55.09
61086;BME280;46967;48.876;2.136;2023-02-19T14:48:43;102657.91;;;14.66;54.91
61086;BME280;46967;48.876;2.136;2023-02-19T14:51:14;102651.84;;;14.66;54.92
61086;BME280;46967;48.876;2.136;2023-02-19T14:53:42;102656.16;;;14.67;54.77
61086;BME280;46967;48.876;2.136;2023-02-19T14:56:26;102657.03;;;14.67;54.72
61086;BME280;46967;48.876;2.136;2023-02-19T15:01:38;102656.66;;;14.88;54.33